Time;durP1;ratioP1;P1;durP2;ratioP2;P2;SDS_P1;SDS_P2;PMS_P1;PMS_P2;Temp;Humidity;BMP_temperature;BMP_pressure;BME280_temperature;BME280_humidity;BME280_pressure;Samples;Min_cycle;Max_cycle;Signal;HPM_P1;HPM_P2
2023/10/28 00:01:55;;;;;;;;;3.00;2.00;;;;;12.48;100.00;99536.75;5083837;27;45285;-68
2023/10/28 00:04:23;;;;;;;;;3.33;1.00;;;;;12.49;100.00;99527.00;5083520;27;45484;-68
2023/10/28 00:06:48;;;;;;;;;3.33;2.33;;;;;12.51;100.00;99527.72;5083617;27;45943;-68
2023/10/28 00:09:15;;;;;;;;;2.00;2.00;;;;;12.47;100.00;99518.28;5083408;27;45319;-68
2023/10/28 00:11:41;;;;;;;;;2.00;2.00;;;;;12.48;100.00;99514.69;5083673;27;45245;-68
2023/10/28 00:14:07;;;;;;;;;1.33;1.00;;;;;12.26;100.00;99483.66;5096614;27;45521;-68
2023/10/28 00:16:32;;;;;;;;;6.67;2.00;;;;;12.42;100.00;99499.25;5103342;27;45603;-68
2023/10/28 00:18:58;;;;;;;;;3.00;2.00;;;;;12.55;100.00;99515.91;5103746;27;45218;-68
2023/10/28 00:21:23;;;;;;;;;2.33;1.67;;;;;12.40;100.00;99495.88;5103660;27;45463;-68
2023/10/28 00:23:49;;;;;;;;;4.00;1.33;;;;;12.45;100.00;99506.97;5103660;27;45416;-68
2023/10/28 00:26:14;;;;;;;;;3.00;1.00;;;;;12.55;100.00;99513.28;5103475;27;45998;-67
2023/10/28 00:28:40;;;;;;;;;6.67;2.00;;;;;12.58;100.00;99521.00;5102771;27;45305;-68
2023/10/28 00:31:05;;;;;;;;;1.00;1.00;;;;;12.59;100.00;99514.75;5103477;27;45634;-67
2023/10/28 00:33:30;;;;;;;;;2.00;2.00;;;;;12.56;100.00;99511.47;5103676;27;45420;-67
2023/10/28 00:35:56;;;;;;;;;3.00;1.33;;;;;12.53;100.00;99504.59;5103465;27;45188;-67
2023/10/28 00:38:22;;;;;;;;;3.00;2.00;;;;;12.56;100.00;99500.84;5103540;27;45280;-67
2023/10/28 00:40:48;;;;;;;;;3.00;3.00;;;;;12.54;100.00;99504.47;5103725;27;45244;-68
2023/10/28 00:43:14;;;;;;;;;3.33;2.00;;;;;12.35;100.00;99477.66;5103472;27;45253;-68
2023/10/28 00:45:40;;;;;;;;;3.67;1.00;;;;;12.53;100.00;99499.28;5103047;27;45225;-68
2023/10/28 00:48:06;;;;;;;;;4.00;2.00;;;;;12.49;100.00;99490.72;5103367;27;45186;-68
2023/10/28 00:50:32;;;;;;;;;1.67;1.33;;;;;12.44;100.00;99481.41;5103388;27;45368;-68
2023/10/28 00:53:02;;;;;;;;;1.67;1.00;;;;;12.54;100.00;99496.50;5103222;27;45418;-68
2023/10/28 00:55:30;;;;;;;;;4.00;2.00;;;;;12.53;100.00;99502.75;5102961;27;45332;-67
2023/10/28 00:57:56;;;;;;;;;4.00;1.33;;;;;12.52;100.00;99490.50;5102878;27;45589;-68
2023/10/28 01:00:21;;;;;;;;;1.33;1.00;;;;;12.39;100.00;99463.22;5102313;27;45335;-68
2023/10/28 01:02:47;;;;;;;;;5.33;1.00;;;;;12.54;100.00;99493.00;5102993;27;45357;-68
2023/10/28 01:05:14;;;;;;;;;3.00;2.00;;;;;12.57;100.00;99489.25;5103091;27;45265;-68
2023/10/28 01:07:41;;;;;;;;;3.00;2.00;;;;;12.53;100.00;99486.03;5103089;27;45241;-68
2023/10/28 01:10:08;;;;;;;;;2.00;1.00;;;;;12.50;100.00;99488.88;5103012;27;45260;-68
2023/10/28 01:12:35;;;;;;;;;1.00;1.00;;;;;12.53;100.00;99486.84;5102461;27;45228;-68
2023/10/28 01:15:02;;;;;;;;;2.00;2.00;;;;;12.53;100.00;99470.13;5081906;27;46030;-67
2023/10/28 01:17:29;;;;;;;;;2.00;2.00;;;;;12.53;100.00;99476.25;5081979;27;45397;-67
2023/10/28 01:19:56;;;;;;;;;1.67;0.00;;;;;12.54;100.00;99474.44;5082600;28;45230;-67
2023/10/28 01:22:23;;;;;;;;;5.33;2.00;;;;;12.51;100.00;99472.88;5082185;27;45183;-67
2023/10/28 01:24:49;;;;;;;;;3.00;1.33;;;;;12.47;100.00;99468.75;5082210;27;47089;-67
2023/10/28 01:27:16;;;;;;;;;1.67;1.00;;;;;12.44;100.00;99457.53;5082167;27;45473;-67
2023/10/28 01:29:41;;;;;;;;;1.00;1.00;;;;;12.48;100.00;99459.84;5082299;27;45267;-67
2023/10/28 01:32:07;;;;;;;;;2.33;1.00;;;;;12.50;100.00;99473.81;5082014;28;45395;-67
2023/10/28 01:34:32;;;;;;;;;4.00;2.00;;;;;12.45;100.00;99446.81;5082079;27;45899;-68
2023/10/28 01:36:59;;;;;;;;;2.00;1.67;;;;;12.40;100.00;99453.44;5081992;27;45317;-68
2023/10/28 01:39:25;;;;;;;;;2.00;0.67;;;;;12.50;100.00;99454.41;5082361;27;45312;-68
2023/10/28 01:41:51;;;;;;;;;2.00;1.00;;;;;12.49;100.00;99461.56;5081946;28;45251;-68
2023/10/28 01:44:17;;;;;;;;;3.33;1.00;;;;;12.50;100.00;99468.53;5081402;27;45248;-68
2023/10/28 01:46:42;;;;;;;;;0.67;0.67;;;;;12.48;100.00;99461.66;5081936;27;45328;-68
2023/10/28 01:49:08;;;;;;;;;0.00;0.00;;;;;12.48;100.00;99461.66;5082156;28;45377;-68
2023/10/28 01:51:34;;;;;;;;;1.00;1.00;;;;;12.47;100.00;99457.31;5081961;27;45285;-68
2023/10/28 01:53:59;;;;;;;;;2.00;2.00;;;;;12.40;100.00;99443.66;5081946;27;46004;-68
2023/10/28 01:56:28;;;;;;;;;1.00;1.00;;;;;12.43;100.00;99463.81;5081772;27;45234;-67
2023/10/28 01:58:53;;;;;;;;;1.00;0.00;;;;;12.47;100.00;99468.75;5081727;27;45326;-68
2023/10/28 02:01:19;;;;;;;;;2.33;2.00;;;;;12.46;100.00;99461.78;5081689;27;45305;-68
2023/10/28 02:03:44;;;;;;;;;1.00;1.00;;;;;12.42;100.00;99462.97;5081634;27;45299;-68
2023/10/28 02:06:10;;;;;;;;;0.00;0.00;;;;;12.46;100.00;99459.13;5080560;28;45785;-68
2023/10/28 02:08:35;;;;;;;;;0.00;0.00;;;;;12.44;100.00;99453.09;5081885;27;45289;-67
2023/10/28 02:11:02;;;;;;;;;1.33;1.33;;;;;12.23;100.00;99422.91;5081461;27;45320;-68
2023/10/28 02:13:27;;;;;;;;;3.67;0.00;;;;;12.39;100.00;99441.16;5089255;27;45481;-68
2023/10/28 02:15:53;;;;;;;;;1.00;1.00;;;;;12.47;100.00;99450.19;5101628;27;45276;-68
2023/10/28 02:18:18;;;;;;;;;2.00;2.00;;;;;12.28;100.00;99435.81;5101687;27;45324;-68
2023/10/28 02:20:44;;;;;;;;;0.00;0.00;;;;;12.47;100.00;99457.31;5101921;27;45253;-68
2023/10/28 02:23:12;;;;;;;;;1.67;1.00;;;;;12.46;100.00;99458.28;5101632;27;45292;-68
2023/10/28 02:25:38;;;;;;;;;2.00;1.00;;;;;12.45;100.00;99451.28;5101849;27;45295;-68
2023/10/28 02:28:03;;;;;;;;;0.67;0.67;;;;;12.46;100.00;99445.03;5101710;27;45202;-68
2023/10/28 02:30:28;;;;;;;;;0.00;0.00;;;;;12.47;100.00;99433.44;5101820;27;45299;-67
2023/10/28 02:32:54;;;;;;;;;1.67;1.67;;;;;12.49;100.00;99450.94;5101372;27;45936;-68
2023/10/28 02:35:20;;;;;;;;;3.33;1.00;;;;;12.31;100.00;99409.06;5101750;27;45234;-68
2023/10/28 02:37:46;;;;;;;;;1.00;1.00;;;;;12.42;100.00;99432.97;5101883;27;45450;-68
2023/10/28 02:40:12;;;;;;;;;1.33;1.00;;;;;12.45;100.00;99428.25;5101697;27;45179;-67
2023/10/28 02:42:37;;;;;;;;;2.00;1.00;;;;;12.50;100.00;99436.69;5101345;27;45263;-69
2023/10/28 02:45:04;;;;;;;;;3.67;2.00;;;;;12.50;100.00;99417.28;5100158;27;45886;-68
2023/10/28 02:47:33;;;;;;;;;2.00;1.00;;;;;12.52;100.00;99428.63;5100377;27;45282;-68
2023/10/28 02:49:59;;;;;;;;;1.67;1.33;;;;;12.43;100.00;99416.91;5101499;27;45435;-68
2023/10/28 02:52:26;;;;;;;;;1.00;1.00;;;;;12.50;100.00;99428.75;5101258;27;46068;-68
2023/10/28 02:54:52;;;;;;;;;0.33;0.00;;;;;12.49;100.00;99418.28;5101407;27;45243;-68
2023/10/28 02:57:17;;;;;;;;;1.00;1.00;;;;;12.39;100.00;99402.22;5101265;27;45490;-68
2023/10/28 02:59:42;;;;;;;;;0.00;0.00;;;;;12.48;100.00;99412.13;5101396;27;45427;-68
2023/10/28 03:02:10;;;;;;;;;0.33;0.33;;;;;12.45;100.00;99416.81;5099965;27;48338;-68
2023/10/28 03:04:36;;;;;;;;;1.33;0.67;;;;;12.46;100.00;99426.47;5101304;27;45300;-68
2023/10/28 03:07:01;;;;;;;;;2.00;1.00;;;;;12.44;100.00;99434.53;5101275;27;45518;-68
2023/10/28 03:09:26;;;;;;;;;1.00;1.00;;;;;12.41;100.00;99426.81;5101652;27;45504;-68
2023/10/28 03:11:52;;;;;;;;;1.00;0.00;;;;;12.38;100.00;99428.84;5101081;27;45473;-67
2023/10/28 03:14:17;;;;;;;;;1.00;1.00;;;;;12.39;100.00;99444.66;5085651;27;45305;-66
2023/10/28 03:16:44;;;;;;;;;1.00;0.00;;;;;12.18;100.00;99411.81;5080713;27;45767;-67
2023/10/28 03:19:11;;;;;;;;;1.67;1.00;;;;;12.37;100.00;99440.41;5080534;27;45484;-67
2023/10/28 03:21:36;;;;;;;;;2.33;0.67;;;;;12.17;100.00;99415.41;5080622;27;45979;-67
2023/10/28 03:24:02;;;;;;;;;0.00;0.00;;;;;12.30;100.00;99449.81;5078653;28;45259;-67
2023/10/28 03:26:28;;;;;;;;;1.00;1.00;;;;;12.26;100.00;99448.34;5080782;28;45332;-67
2023/10/28 03:28:53;;;;;;;;;2.00;0.00;;;;;12.28;100.00;99462.31;5080064;28;45543;-67
2023/10/28 03:31:18;;;;;;;;;1.00;1.00;;;;;12.24;100.00;99450.25;5080478;27;45269;-67
2023/10/28 03:33:45;;;;;;;;;1.00;1.00;;;;;12.21;100.00;99439.88;5080145;27;45353;-67
2023/10/28 03:36:10;;;;;;;;;1.00;1.00;;;;;12.25;100.00;99446.63;5080479;27;45209;-67
2023/10/28 03:38:36;;;;;;;;;0.00;0.00;;;;;12.23;100.00;99453.88;5080094;28;45521;-67
2023/10/28 03:41:09;;;;;;;;;4.33;0.67;;;;;12.07;100.00;99440.94;5080361;27;45324;-67
2023/10/28 03:43:35;;;;;;;;;1.00;1.00;;;;;12.22;100.00;99466.28;5080179;27;45278;-67
2023/10/28 03:46:03;;;;;;;;;2.33;1.00;;;;;12.18;100.00;99453.34;5079191;28;45352;-68
2023/10/28 03:48:29;;;;;;;;;1.00;0.00;;;;;12.19;100.00;99461.22;5080219;27;45524;-68
2023/10/28 03:51:04;;;;;;;;;1.00;0.00;;;;;12.14;100.00;99447.44;5080261;27;46142;-68
2023/10/28 03:53:30;;;;;;;;;2.00;1.00;;;;;12.10;100.00;99430.09;5080205;27;45407;-68
2023/10/28 03:55:56;;;;;;;;;1.00;0.00;;;;;12.29;100.00;99461.38;5079618;28;45359;-68
2023/10/28 03:58:22;;;;;;;;;0.67;0.00;;;;;12.26;100.00;99453.63;5080176;27;45439;-68
2023/10/28 04:00:53;;;;;;;;;1.00;1.00;;;;;12.28;100.00;99464.97;5079973;27;45260;-68
2023/10/28 04:03:20;;;;;;;;;4.33;1.00;;;;;12.28;100.00;99465.81;5079806;27;45420;-68
2023/10/28 04:05:46;;;;;;;;;3.00;1.67;;;;;12.15;100.00;99457.09;5080266;27;45298;-68
2023/10/28 04:08:12;;;;;;;;;2.00;0.67;;;;;12.28;100.00;99463.16;5079879;27;45430;-68
2023/10/28 04:10:38;;;;;;;;;5.67;1.00;;;;;12.28;100.00;99476.41;5080016;28;45671;-68
2023/10/28 04:13:03;;;;;;;;;1.00;0.00;;;;;12.26;100.00;99466.91;5083195;27;45243;-68
2023/10/28 04:15:29;;;;;;;;;2.00;1.00;;;;;12.22;100.00;99468.94;5099103;27;45267;-68
2023/10/28 04:17:57;;;;;;;;;1.33;0.67;;;;;12.21;100.00;99471.69;5099946;27;45424;-68
2023/10/28 04:20:25;;;;;;;;;0.00;0.00;;;;;12.22;100.00;99491.94;5100352;27;45235;-68
2023/10/28 04:22:50;;;;;;;;;1.33;1.00;;;;;12.16;100.00;99480.00;5100024;27;45320;-68
2023/10/28 04:25:16;;;;;;;;;2.00;0.00;;;;;12.26;100.00;99488.09;5099323;27;45339;-68
2023/10/28 04:27:41;;;;;;;;;2.00;0.67;;;;;12.29;100.00;99491.38;5100258;27;45550;-68
2023/10/28 04:30:10;;;;;;;;;3.67;1.00;;;;;12.23;100.00;99483.88;5099767;27;45888;-68
2023/10/28 04:32:39;;;;;;;;;1.00;0.00;;;;;12.34;100.00;99486.56;5100152;27;45343;-67
2023/10/28 04:35:05;;;;;;;;;1.67;0.00;;;;;12.24;100.00;99474.09;5100019;27;45325;-68
2023/10/28 04:37:34;;;;;;;;;1.33;0.00;;;;;12.22;100.00;99468.06;5102917;27;45486;-67
2023/10/28 04:39:59;;;;;;;;;0.00;0.00;;;;;12.37;100.00;99494.28;5103279;27;46290;-68
2023/10/28 04:42:24;;;;;;;;;0.00;0.00;;;;;12.38;100.00;99503.09;5103723;27;45526;-68
2023/10/28 04:44:50;;;;;;;;;1.33;0.33;;;;;12.38;100.00;99500.44;5103337;27;45250;-68
2023/10/28 04:47:15;;;;;;;;;4.00;0.00;;;;;12.37;100.00;99504.03;5102636;27;45580;-67
2023/10/28 04:49:41;;;;;;;;;0.00;0.00;;;;;12.36;100.00;99499.72;5103148;27;45347;-67
2023/10/28 04:52:08;;;;;;;;;1.00;1.00;;;;;12.34;100.00;99497.16;5103473;27;45402;-67
2023/10/28 04:54:34;;;;;;;;;1.00;1.00;;;;;12.26;100.00;99480.16;5103304;27;45237;-67
2023/10/28 04:57:00;;;;;;;;;0.00;0.00;;;;;12.37;100.00;99488.13;5103348;27;45399;-67
2023/10/28 04:59:28;;;;;;;;;2.00;1.00;;;;;12.27;100.00;99477.38;5102558;27;45388;-67
2023/10/28 05:01:54;;;;;;;;;1.67;1.00;;;;;12.29;100.00;99471.97;5103290;27;45198;-67
2023/10/28 05:04:19;;;;;;;;;2.33;1.00;;;;;12.35;100.00;99488.25;5103018;27;45229;-67
2023/10/28 05:06:44;;;;;;;;;2.00;2.00;;;;;12.24;100.00;99476.75;5103305;27;45587;-67
2023/10/28 05:09:10;;;;;;;;;5.00;1.00;;;;;12.30;100.00;99495.69;5102931;27;45286;-67
2023/10/28 05:11:35;;;;;;;;;2.00;0.67;;;;;12.24;100.00;99488.19;5102964;27;45253;-67
2023/10/28 05:14:01;;;;;;;;;3.00;2.00;;;;;12.40;100.00;99502.00;5088793;27;45300;-66
2023/10/28 05:16:26;;;;;;;;;1.00;0.00;;;;;12.31;100.00;99483.28;5082247;27;45263;-67
2023/10/28 05:18:52;;;;;;;;;2.00;0.00;;;;;12.35;100.00;99485.59;5081149;27;45344;-66
2023/10/28 05:21:17;;;;;;;;;1.67;1.00;;;;;12.42;100.00;99496.59;5082640;27;45330;-66
2023/10/28 05:23:43;;;;;;;;;2.00;0.33;;;;;12.43;100.00;99504.41;5082679;27;45506;-66
2023/10/28 05:26:08;;;;;;;;;1.33;0.00;;;;;12.43;100.00;99495.66;5082676;27;45336;-66
2023/10/28 05:28:34;;;;;;;;;1.00;1.00;;;;;12.38;100.00;99493.31;5082300;27;45307;-66
2023/10/28 05:30:59;;;;;;;;;1.67;1.00;;;;;12.24;100.00;99463.50;5082439;27;45296;-67
2023/10/28 05:33:24;;;;;;;;;3.00;2.00;;;;;12.28;100.00;99478.22;5081325;27;45337;-66
2023/10/28 05:35:52;;;;;;;;;1.00;1.00;;;;;12.32;100.00;99500.91;5082128;27;45233;-67
2023/10/28 05:38:20;;;;;;;;;4.00;1.00;;;;;12.38;100.00;99500.44;5082110;27;46391;-67
2023/10/28 05:40:45;;;;;;;;;2.00;0.33;;;;;12.39;100.00;99508.28;5081966;27;45451;-67
2023/10/28 05:43:11;;;;;;;;;3.33;2.33;;;;;12.40;100.00;99503.84;5082256;28;45473;-66
2023/10/28 05:45:37;;;;;;;;;2.67;2.67;;;;;12.43;100.00;99512.38;5080665;28;45754;-67
2023/10/28 05:48:03;;;;;;;;;1.00;1.00;;;;;12.42;100.00;99502.75;5081409;28;46184;-66
2023/10/28 05:50:29;;;;;;;;;2.00;1.00;;;;;12.47;100.00;99511.19;5081666;28;45291;-66
2023/10/28 05:52:54;;;;;;;;;4.00;1.00;;;;;12.47;100.00;99519.16;5082078;27;45291;-68
2023/10/28 05:55:20;;;;;;;;;2.00;0.33;;;;;12.44;100.00;99507.91;5080734;28;45650;-68
2023/10/28 05:57:45;;;;;;;;;0.67;0.67;;;;;12.49;100.00;99517.25;5080616;28;48211;-67
2023/10/28 06:00:11;;;;;;;;;1.67;1.00;;;;;12.50;100.00;99526.88;5081330;28;45315;-67
2023/10/28 06:02:38;;;;;;;;;2.00;1.00;;;;;12.50;100.00;99512.75;5081956;27;45302;-68
2023/10/28 06:05:04;;;;;;;;;4.00;2.00;;;;;12.52;100.00;99517.00;5081636;27;45439;-68
2023/10/28 06:07:33;;;;;;;;;4.33;3.00;;;;;12.54;100.00;99520.38;5081644;27;45948;-67
2023/10/28 06:09:58;;;;;;;;;6.33;2.00;;;;;12.33;100.00;99481.38;5080543;28;45301;-68
2023/10/28 06:12:25;;;;;;;;;3.00;2.00;;;;;12.59;100.00;99514.75;5081826;27;45384;-68
2023/10/28 06:14:53;;;;;;;;;5.67;1.00;;;;;12.58;100.00;99517.50;5099412;27;45376;-68
2023/10/28 06:17:20;;;;;;;;;1.33;0.67;;;;;12.61;100.00;99515.44;5100658;27;48357;-67
2023/10/28 06:19:46;;;;;;;;;4.67;1.00;;;;;12.63;100.00;99520.66;5101707;27;45260;-68
2023/10/28 06:22:12;;;;;;;;;3.00;1.33;;;;;12.54;100.00;99503.63;5102350;27;45419;-68
2023/10/28 06:24:38;;;;;;;;;2.00;1.00;;;;;12.64;100.00;99514.38;5101753;27;45436;-67
2023/10/28 06:27:04;;;;;;;;;0.33;0.33;;;;;12.68;100.00;99524.63;5101765;27;45894;-68
2023/10/28 06:29:30;;;;;;;;;1.00;1.00;;;;;12.69;100.00;99526.34;5100407;27;45355;-67
2023/10/28 06:31:58;;;;;;;;;5.33;0.67;;;;;12.62;100.00;99514.50;5101972;27;45294;-68
2023/10/28 06:34:27;;;;;;;;;5.67;1.00;;;;;12.60;100.00;99520.88;5101623;27;45264;-68
2023/10/28 06:36:53;;;;;;;;;3.00;1.67;;;;;12.74;100.00;99544.53;5101634;27;45423;-68
2023/10/28 06:39:19;;;;;;;;;3.00;1.00;;;;;12.72;100.00;99547.31;5101306;27;45300;-67
2023/10/28 06:41:44;;;;;;;;;2.00;1.00;;;;;12.60;100.00;99518.25;5100389;27;45249;-68
2023/10/28 06:44:10;;;;;;;;;3.67;1.00;;;;;12.77;100.00;99541.66;5100550;27;45324;-68
2023/10/28 06:46:36;;;;;;;;;4.00;2.00;;;;;12.78;100.00;99540.69;5101060;27;45398;-68
2023/10/28 06:49:02;;;;;;;;;3.00;0.00;;;;;12.81;100.00;99546.63;5101154;27;45312;-68
2023/10/28 06:51:27;;;;;;;;;1.67;1.67;;;;;12.77;100.00;99537.19;5101222;27;45245;-68
2023/10/28 06:53:53;;;;;;;;;3.00;1.00;;;;;12.76;100.00;99540.81;5101261;27;45189;-68
2023/10/28 06:56:18;;;;;;;;;2.67;1.00;;;;;12.72;100.00;99539.38;5100916;27;45899;-67
2023/10/28 06:58:44;;;;;;;;;3.33;2.00;;;;;12.73;100.00;99525.13;5100001;27;45265;-68
2023/10/28 07:01:09;;;;;;;;;2.00;1.67;;;;;12.87;100.00;99558.56;5100993;27;45293;-68
2023/10/28 07:03:38;;;;;;;;;2.00;1.33;;;;;12.88;100.00;99552.31;5099807;27;45271;-68
2023/10/28 07:06:04;;;;;;;;;3.00;2.00;;;;;12.76;100.00;99534.69;5101051;27;46227;-68
2023/10/28 07:08:30;;;;;;;;;5.67;2.00;;;;;12.90;100.00;99558.31;5099876;27;45809;-68
2023/10/28 07:10:57;;;;;;;;;3.33;1.67;;;;;12.92;100.00;99565.22;5101066;27;45493;-68
2023/10/28 07:13:22;;;;;;;;;2.00;0.00;;;;;12.93;100.00;99550.13;5093734;27;45328;-68
2023/10/28 07:15:47;;;;;;;;;3.00;1.00;;;;;12.77;100.00;99531.88;5079932;27;45972;-68
2023/10/28 07:18:13;;;;;;;;;1.00;1.00;;;;;12.96;100.00;99553.41;5079412;28;45276;-68
2023/10/28 07:20:40;;;;;;;;;2.67;0.00;;;;;12.94;100.00;99567.75;5080453;28;45195;-68
2023/10/28 07:23:06;;;;;;;;;1.67;1.67;;;;;12.88;100.00;99547.84;5079491;28;45447;-66
2023/10/28 07:25:32;;;;;;;;;1.67;1.00;;;;;13.02;100.00;99576.81;5080417;27;45225;-66
2023/10/28 07:28:00;;;;;;;;;2.00;1.00;;;;;12.88;100.00;99547.00;5079309;28;45355;-66
2023/10/28 07:30:25;;;;;;;;;3.00;1.67;;;;;13.06;100.00;99577.41;5080312;28;45212;-66
2023/10/28 07:32:50;;;;;;;;;5.00;1.00;;;;;12.97;100.00;99560.41;5080258;27;45345;-67
2023/10/28 07:35:19;;;;;;;;;0.33;0.33;;;;;13.04;100.00;99577.56;5096029;27;47811;-67
2023/10/28 07:37:44;;;;;;;;;1.00;1.00;;;;;13.00;100.00;99569.94;5080291;27;45313;-67
2023/10/28 07:40:13;;;;;;;;;2.00;1.33;;;;;13.05;100.00;99579.22;5080354;28;45242;-67
2023/10/28 07:42:39;;;;;;;;;1.00;1.00;;;;;13.11;100.00;99585.94;5080170;27;45380;-67
2023/10/28 07:45:07;;;;;;;;;0.00;0.00;;;;;13.22;100.00;99601.03;5079959;27;45589;-67
2023/10/28 07:47:32;;;;;;;;;0.33;0.33;;;;;13.27;100.00;99610.31;5079901;27;45304;-67
2023/10/28 07:49:58;;;;;;;;;4.00;1.00;;;;;13.30;100.00;99598.63;5080335;27;45667;-67
2023/10/28 07:52:23;;;;;;;;;3.33;1.00;;;;;13.32;100.00;99609.94;5079959;27;45522;-67
2023/10/28 07:54:49;;;;;;;;;1.67;0.67;;;;;13.31;100.00;99609.13;5080201;27;45226;-67
2023/10/28 07:57:14;;;;;;;;;0.00;0.00;;;;;13.21;100.00;99594.03;5080020;27;45322;-67
2023/10/28 07:59:39;;;;;;;;;0.33;0.00;;;;;13.24;100.00;99610.56;5079983;27;45310;-67
2023/10/28 08:02:05;;;;;;;;;1.00;1.00;;;;;13.31;100.00;99629.53;5079944;27;45246;-67
2023/10/28 08:04:30;;;;;;;;;0.00;0.00;;;;;13.24;100.00;99607.06;5079670;27;46067;-67
2023/10/28 08:06:56;;;;;;;;;0.00;0.00;;;;;13.35;100.00;99631.81;5079902;27;45324;-67
2023/10/28 08:09:22;;;;;;;;;4.00;0.00;;;;;13.15;100.00;99594.50;5080228;27;45148;-67
2023/10/28 08:11:48;;;;;;;;;0.00;0.00;;;;;13.12;100.00;99600.06;5083255;27;45531;-67
2023/10/28 08:14:13;;;;;;;;;2.33;1.00;;;;;13.33;100.00;99619.63;5097501;27;45245;-67
2023/10/28 08:16:39;;;;;;;;;0.67;0.67;;;;;13.27;100.00;99612.13;5103512;27;45342;-66
2023/10/28 08:19:04;;;;;;;;;2.00;0.00;;;;;13.42;100.00;99634.84;5103863;27;45292;-66
2023/10/28 08:21:30;;;;;;;;;1.00;1.00;;;;;13.32;100.00;99613.47;5103789;27;45397;-66
2023/10/28 08:23:55;;;;;;;;;2.00;0.00;;;;;13.36;100.00;99628.19;5102622;27;47486;-66
2023/10/28 08:26:21;;;;;;;;;2.00;2.00;;;;;13.48;100.00;99629.06;5103727;27;45354;-66
2023/10/28 08:28:46;;;;;;;;;2.33;0.67;;;;;13.34;100.00;99590.31;5103734;27;45274;-66
2023/10/28 08:31:12;;;;;;;;;1.00;1.00;;;;;13.55;100.00;99620.50;5103652;27;45341;-66
2023/10/28 08:33:41;;;;;;;;;1.67;0.33;;;;;13.52;100.00;99617.22;5102560;27;46163;-67
2023/10/28 08:36:08;;;;;;;;;1.00;1.00;;;;;13.54;100.00;99610.00;5103727;27;45435;-67
2023/10/28 08:38:33;;;;;;;;;5.00;1.00;;;;;13.61;100.00;99621.00;5103642;27;45312;-67
2023/10/28 08:41:01;;;;;;;;;0.00;0.00;;;;;13.58;100.00;99606.97;5102309;27;45480;-67
2023/10/28 08:43:27;;;;;;;;;1.67;0.00;;;;;13.61;100.00;99605.91;5103271;27;46801;-67
2023/10/28 08:45:54;;;;;;;;;1.67;1.00;;;;;13.63;100.00;99598.66;5103580;27;45172;-67
2023/10/28 08:48:21;;;;;;;;;1.33;1.33;;;;;13.65;100.00;99598.50;5103245;27;45289;-67
2023/10/28 08:50:53;;;;;;;;;1.00;1.00;;;;;13.61;100.00;99589.97;5103476;27;45270;-67
2023/10/28 08:53:21;;;;;;;;;1.00;1.00;;;;;13.66;100.00;99584.28;5102952;27;46186;-67
2023/10/28 08:55:52;;;;;;;;;2.00;1.00;;;;;13.82;100.00;99587.41;5102293;27;45244;-67
2023/10/28 08:58:20;;;;;;;;;2.00;0.33;;;;;13.93;100.00;99579.41;5103138;27;45343;-67
2023/10/28 09:00:50;;;;;;;;;0.33;0.33;;;;;13.97;100.00;99584.34;5103219;27;45509;-67
2023/10/28 09:03:20;;;;;;;;;1.00;1.00;;;;;14.03;100.00;99586.53;5101809;27;47982;-67
2023/10/28 09:05:48;;;;;;;;;3.00;0.00;;;;;14.09;100.00;99574.56;5103248;27;45272;-68
2023/10/28 09:08:13;;;;;;;;;3.33;1.67;;;;;14.12;100.00;99558.34;5103361;27;45452;-67
2023/10/28 09:10:41;;;;;;;;;0.33;0.33;;;;;14.19;100.00;99572.00;5103022;27;45262;-67
2023/10/28 09:13:07;;;;;;;;;3.33;1.00;;;;;14.24;100.00;99564.47;5097569;27;45350;-67
2023/10/28 09:15:34;;;;;;;;;0.33;0.33;;;;;14.31;100.00;99563.00;5082032;28;45398;-67
2023/10/28 09:18:03;;;;;;;;;0.67;0.00;;;;;14.32;100.00;99567.34;5082379;27;45310;-67
2023/10/28 09:20:29;;;;;;;;;0.00;0.00;;;;;14.17;100.00;99542.03;5082672;27;45236;-68
2023/10/28 09:22:54;;;;;;;;;1.00;0.00;;;;;14.42;100.00;99561.19;5081406;27;46165;-69
2023/10/28 09:25:21;;;;;;;;;1.67;1.00;;;;;14.47;100.00;99558.97;5082320;27;45305;-68
2023/10/28 09:27:47;;;;;;;;;0.67;0.67;;;;;14.44;100.00;99551.25;5082460;27;45357;-68
2023/10/28 09:30:15;;;;;;;;;0.00;0.00;;;;;14.39;100.00;99544.63;5082242;27;45289;-68
2023/10/28 09:32:41;;;;;;;;;1.00;1.00;;;;;14.53;100.00;99553.16;5081924;27;45969;-68
2023/10/28 09:35:08;;;;;;;;;1.33;0.00;;;;;14.53;100.00;99558.47;5082345;28;45233;-67
2023/10/28 09:37:35;;;;;;;;;1.00;0.00;;;;;14.58;100.00;99555.44;5081102;27;45448;-68
2023/10/28 09:40:05;;;;;;;;;0.00;0.00;;;;;14.67;100.00;99559.97;5082276;27;45293;-67
2023/10/28 09:42:32;;;;;;;;;2.00;1.00;;;;;14.67;100.00;99544.00;5082018;27;45285;-67
2023/10/28 09:45:05;;;;;;;;;0.33;0.33;;;;;14.75;100.00;99546.88;5080989;28;45297;-67
2023/10/28 09:47:58;;;;;;;;;2.00;0.00;;;;;14.81;100.00;99554.34;5082046;27;45241;-67
2023/10/28 09:50:27;;;;;;;;;3.00;1.33;;;;;14.76;100.00;99524.59;5082074;27;45303;-67
2023/10/28 09:52:55;;;;;;;;;2.00;2.00;;;;;14.92;100.00;99540.97;5080613;28;48521;-66
2023/10/28 09:55:34;;;;;;;;;0.00;0.00;;;;;14.85;100.00;99529.16;5081905;27;45247;-67
2023/10/28 09:58:09;;;;;;;;;0.00;0.00;;;;;14.95;100.00;99526.56;5081868;27;45460;-67
2023/10/28 10:00:37;;;;;;;;;2.00;0.33;;;;;14.80;100.00;99507.41;5080456;27;45487;-67
2023/10/28 10:03:22;;;;;;;;;1.00;1.00;;;;;15.07;100.00;99530.84;5081435;27;45349;-67
2023/10/28 10:05:48;;;;;;;;;1.00;0.00;;;;;14.96;100.00;99517.59;5081813;28;45324;-68
2023/10/28 10:08:24;;;;;;;;;0.33;0.00;;;;;15.12;100.00;99544.59;5080552;28;45360;-68
2023/10/28 10:10:53;;;;;;;;;0.00;0.00;;;;;15.14;100.00;99540.00;5080715;28;45871;-67
2023/10/28 10:13:19;;;;;;;;;0.00;0.00;;;;;15.12;100.00;99547.25;5087554;27;46221;-67
2023/10/28 10:15:53;;;;;;;;;0.67;0.67;;;;;15.15;100.00;99549.66;5100724;27;45296;-67
2023/10/28 10:18:50;;;;;;;;;0.00;0.00;;;;;15.17;100.00;99553.03;5101834;27;45244;-67
2023/10/28 10:21:22;;;;;;;;;0.00;0.00;;;;;15.21;100.00;99554.47;5099781;27;45306;-68
2023/10/28 10:23:52;;;;;;;;;0.00;0.00;;;;;15.18;100.00;99560.06;5100570;27;45390;-68
2023/10/28 10:26:22;;;;;;;;;0.00;0.00;;;;;15.33;100.00;99560.53;5102018;27;45251;-67
2023/10/28 10:28:48;;;;;;;;;0.33;0.33;;;;;15.38;100.00;99592.97;5101630;27;45292;-68
2023/10/28 10:31:18;;;;;;;;;0.00;0.00;;;;;15.39;100.00;99600.81;5101884;27;45277;-67
2023/10/28 10:33:44;;;;;;;;;0.67;0.67;;;;;15.20;100.00;99573.22;5100337;27;46165;-67
2023/10/28 10:36:19;;;;;;;;;0.00;0.00;;;;;15.34;100.00;99618.19;5101730;27;45313;-68
2023/10/28 10:38:45;;;;;;;;;0.00;0.00;;;;;15.19;100.00;99616.81;5101598;27;45325;-67
2023/10/28 10:41:22;;;;;;;;;1.00;1.00;;;;;15.12;100.00;99620.00;5101613;27;45513;-68
2023/10/28 10:43:47;;;;;;;;;1.33;0.67;;;;;14.95;100.00;99611.75;5101278;27;45303;-68
2023/10/28 10:46:14;;;;;;;;;0.67;0.00;;;;;14.99;100.00;99619.34;5101558;27;45244;-68
2023/10/28 10:48:39;;;;;;;;;0.00;0.00;;;;;14.94;100.00;99620.72;5100314;27;45273;-68
2023/10/28 10:51:04;;;;;;;;;1.00;0.00;;;;;14.93;100.00;99611.03;5101604;27;45319;-68
2023/10/28 10:53:40;;;;;;;;;0.00;0.00;;;;;14.82;100.00;99600.47;5101314;27;45879;-67
2023/10/28 10:56:17;;;;;;;;;1.33;1.00;;;;;14.76;100.00;99582.31;5101561;27;45330;-68
2023/10/28 10:58:43;;;;;;;;;0.33;0.33;;;;;14.53;100.00;99510.56;5101057;27;45379;-68
2023/10/28 11:01:09;;;;;;;;;2.00;0.00;;;;;14.70;100.00;99549.06;5101309;27;45395;-68
2023/10/28 11:03:34;;;;;;;;;1.67;0.00;;;;;14.81;100.00;99549.03;5100906;27;45959;-68
2023/10/28 11:06:00;;;;;;;;;0.67;0.67;;;;;14.99;100.00;99573.22;5101356;27;45277;-68
2023/10/28 11:08:26;;;;;;;;;1.33;1.33;;;;;14.91;100.00;99555.28;5101314;27;45237;-68
2023/10/28 11:10:52;;;;;;;;;0.33;0.33;;;;;14.88;100.00;99563.53;5100093;27;45254;-68
2023/10/28 11:13:18;;;;;;;;;1.00;0.00;;;;;14.98;100.00;99583.06;5093904;27;46380;-67
2023/10/28 11:15:43;;;;;;;;;0.00;0.00;;;;;14.95;100.00;99569.16;5080516;27;45241;-67
2023/10/28 11:18:09;;;;;;;;;0.67;0.00;;;;;15.07;100.00;99576.09;5080577;27;45254;-68
2023/10/28 11:20:35;;;;;;;;;1.00;1.00;;;;;15.18;100.00;99576.03;5080618;27;45498;-68
2023/10/28 11:23:02;;;;;;;;;0.00;0.00;;;;;15.21;100.00;99573.13;5080563;28;45199;-68